Terminal Aerodrome Forecast
Issued by NWS Northern Indiana

Home | Current Version | Previous Version | Text Only | Print | Product List | Glossary On
Versions: 1 2 3 4 5 6 7 8 9 10 11 12 13 14 15 16
000
FTUS43 KIWX 210537
TAFFWA
TAF
KFWA 210537Z 2106/2206 08005KT 6SM BR SCT006 OVC030
      TEMPO 2106/2108 3SM -SHRA BR BKN006
     FM210800 16006KT 3SM -SHRA BR SCT009 OVC015
     FM211100 19007KT 4SM BR VCSH OVC015
     FM211500 22009KT P6SM VCSH OVC020
     FM211700 24011G17KT P6SM BKN020
     FM211900 25011KT P6SM BKN045=

USA.gov is the U.S. government's official web portal to all federal, state and local government web resources and services.